sensor_id;sensor_type;location;lat;lon;timestamp;pressure;altitude;pressure_sealevel;temperature;humidity
49216;BME280;45943;53.148;8.204;2023-09-19T00:01:19;100436.69;;;20.30;100.00
49216;BME280;45943;53.148;8.204;2023-09-19T00:03:46;100436.97;;;20.42;100.00
49216;BME280;45943;53.148;8.204;2023-09-19T00:06:12;100445.25;;;20.49;100.00
49216;BME280;45943;53.148;8.204;2023-09-19T00:08:41;100447.78;;;20.50;100.00
49216;BME280;45943;53.148;8.204;2023-09-19T00:11:09;100446.53;;;20.53;100.00
49216;BME280;45943;53.148;8.204;2023-09-19T00:13:36;100448.41;;;20.52;100.00
49216;BME280;45943;53.148;8.204;2023-09-19T00:16:09;100448.03;;;20.55;100.00
49216;BME280;45943;53.148;8.204;2023-09-19T00:18:37;100456.66;;;20.59;100.00
49216;BME280;45943;53.148;8.204;2023-09-19T00:21:03;100466.66;;;20.52;100.00
49216;BME280;45943;53.148;8.204;2023-09-19T00:23:33;100460.63;;;20.56;100.00
49216;BME280;45943;53.148;8.204;2023-09-19T00:25:59;100461.84;;;20.54;100.00
49216;BME280;45943;53.148;8.204;2023-09-19T00:28:28;100461.66;;;20.55;100.00
49216;BME280;45943;53.148;8.204;2023-09-19T00:30:57;100457.91;;;20.56;100.00
49216;BME280;45943;53.148;8.204;2023-09-19T00:33:27;100460.16;;;20.53;100.00
49216;BME280;45943;53.148;8.204;2023-09-19T00:35:56;100465.56;;;20.46;100.00
49216;BME280;45943;53.148;8.204;2023-09-19T00:38:23;100468.72;;;20.50;100.00
49216;BME280;45943;53.148;8.204;2023-09-19T00:40:53;100469.38;;;20.52;100.00
49216;BME280;45943;53.148;8.204;2023-09-19T00:43:20;100472.72;;;20.54;100.00
49216;BME280;45943;53.148;8.204;2023-09-19T00:45:47;100477.09;;;20.48;100.00
49216;BME280;45943;53.148;8.204;2023-09-19T00:48:15;100480.41;;;20.44;100.00
49216;BME280;45943;53.148;8.204;2023-09-19T00:50:42;100483.97;;;20.44;100.00
49216;BME280;45943;53.148;8.204;2023-09-19T00:53:09;100482.84;;;20.39;100.00
49216;BME280;45943;53.148;8.204;2023-09-19T00:55:39;100482.03;;;20.38;100.00
49216;BME280;45943;53.148;8.204;2023-09-19T00:58:09;100488.03;;;20.33;100.00
49216;BME280;45943;53.148;8.204;2023-09-19T01:00:36;100497.34;;;20.18;100.00
49216;BME280;45943;53.148;8.204;2023-09-19T01:03:02;100498.75;;;20.14;100.00
49216;BME280;45943;53.148;8.204;2023-09-19T01:05:29;100510.34;;;20.22;100.00
49216;BME280;45943;53.148;8.204;2023-09-19T01:07:58;100515.59;;;20.24;100.00
49216;BME280;45943;53.148;8.204;2023-09-19T01:10:24;100526.97;;;20.27;100.00
49216;BME280;45943;53.148;8.204;2023-09-19T01:12:55;100518.00;;;20.33;100.00
49216;BME280;45943;53.148;8.204;2023-09-19T01:18:25;100517.81;;;20.35;100.00
49216;BME280;45943;53.148;8.204;2023-09-19T01:21:15;100522.81;;;20.31;100.00
49216;BME280;45943;53.148;8.204;2023-09-19T01:29:39;100541.44;;;20.28;100.00
49216;BME280;45943;53.148;8.204;2023-09-19T01:32:10;100537.53;;;20.16;100.00
49216;BME280;45943;53.148;8.204;2023-09-19T01:34:48;100538.53;;;19.93;100.00
49216;BME280;45943;53.148;8.204;2023-09-19T01:37:20;100542.69;;;19.89;100.00
49216;BME280;45943;53.148;8.204;2023-09-19T01:40:04;100549.72;;;19.84;100.00
49216;BME280;45943;53.148;8.204;2023-09-19T01:45:11;100539.22;;;19.66;100.00
49216;BME280;45943;53.148;8.204;2023-09-19T01:47:56;100544.97;;;19.71;100.00
49216;BME280;45943;53.148;8.204;2023-09-19T01:51:18;100544.03;;;19.64;100.00
49216;BME280;45943;53.148;8.204;2023-09-19T01:53:27;100543.78;;;19.59;100.00
49216;BME280;45943;53.148;8.204;2023-09-19T01:55:57;100544.50;;;19.67;100.00
49216;BME280;45943;53.148;8.204;2023-09-19T01:58:29;100542.25;;;19.71;100.00
49216;BME280;45943;53.148;8.204;2023-09-19T02:01:01;100553.97;;;19.71;100.00
49216;BME280;45943;53.148;8.204;2023-09-19T02:03:31;100546.28;;;19.60;100.00
49216;BME280;45943;53.148;8.204;2023-09-19T02:06:00;100548.88;;;19.54;100.00
49216;BME280;45943;53.148;8.204;2023-09-19T02:08:26;100537.94;;;19.32;100.00
49216;BME280;45943;53.148;8.204;2023-09-19T02:10:52;100540.47;;;19.34;100.00
49216;BME280;45943;53.148;8.204;2023-09-19T02:13:19;100544.41;;;19.31;100.00
49216;BME280;45943;53.148;8.204;2023-09-19T02:15:45;100553.88;;;19.35;100.00
49216;BME280;45943;53.148;8.204;2023-09-19T02:18:12;100544.50;;;19.23;100.00
49216;BME280;45943;53.148;8.204;2023-09-19T02:20:39;100557.53;;;19.13;100.00
49216;BME280;45943;53.148;8.204;2023-09-19T02:23:05;100556.97;;;19.17;100.00
49216;BME280;45943;53.148;8.204;2023-09-19T02:25:32;100568.13;;;19.23;100.00
49216;BME280;45943;53.148;8.204;2023-09-19T02:27:58;100565.88;;;19.11;100.00
49216;BME280;45943;53.148;8.204;2023-09-19T02:30:29;100564.72;;;19.06;100.00
49216;BME280;45943;53.148;8.204;2023-09-19T02:32:55;100574.56;;;19.07;100.00
49216;BME280;45943;53.148;8.204;2023-09-19T02:35:21;100575.69;;;18.98;100.00
49216;BME280;45943;53.148;8.204;2023-09-19T02:37:48;100577.28;;;18.92;100.00
49216;BME280;45943;53.148;8.204;2023-09-19T02:40:14;100572.09;;;18.82;100.00
49216;BME280;45943;53.148;8.204;2023-09-19T02:42:54;100574.81;;;18.82;100.00
49216;BME280;45943;53.148;8.204;2023-09-19T02:45:21;100570.94;;;18.77;100.00
49216;BME280;45943;53.148;8.204;2023-09-19T02:47:48;100568.91;;;18.79;100.00
49216;BME280;45943;53.148;8.204;2023-09-19T02:50:14;100583.59;;;18.70;100.00
49216;BME280;45943;53.148;8.204;2023-09-19T02:52:44;100576.69;;;18.59;100.00
49216;BME280;45943;53.148;8.204;2023-09-19T02:55:17;100567.31;;;18.61;100.00
49216;BME280;45943;53.148;8.204;2023-09-19T02:57:51;100568.03;;;18.55;100.00
49216;BME280;45943;53.148;8.204;2023-09-19T03:00:20;100578.00;;;18.63;100.00
49216;BME280;45943;53.148;8.204;2023-09-19T03:02:51;100577.53;;;18.59;100.00
49216;BME280;45943;53.148;8.204;2023-09-19T03:05:19;100581.28;;;18.58;100.00
49216;BME280;45943;53.148;8.204;2023-09-19T03:07:47;100579.88;;;18.62;100.00
49216;BME280;45943;53.148;8.204;2023-09-19T03:10:16;100579.22;;;18.60;100.00
49216;BME280;45943;53.148;8.204;2023-09-19T03:12:44;100593.03;;;18.51;100.00
49216;BME280;45943;53.148;8.204;2023-09-19T03:15:10;100595.19;;;18.55;100.00
49216;BME280;45943;53.148;8.204;2023-09-19T03:17:36;100603.34;;;18.55;100.00
49216;BME280;45943;53.148;8.204;2023-09-19T03:20:02;100604.75;;;18.51;100.00
49216;BME280;45943;53.148;8.204;2023-09-19T03:22:30;100607.56;;;18.58;100.00
49216;BME280;45943;53.148;8.204;2023-09-19T03:24:56;100595.19;;;18.55;100.00
49216;BME280;45943;53.148;8.204;2023-09-19T03:27:22;100599.59;;;18.56;100.00
49216;BME280;45943;53.148;8.204;2023-09-19T03:29:48;100610.19;;;18.51;100.00
49216;BME280;45943;53.148;8.204;2023-09-19T03:32:14;100608.50;;;18.50;100.00
49216;BME280;45943;53.148;8.204;2023-09-19T03:34:40;100611.03;;;18.52;100.00
49216;BME280;45943;53.148;8.204;2023-09-19T03:37:06;100604.00;;;18.57;100.00
49216;BME280;45943;53.148;8.204;2023-09-19T03:39:32;100607.47;;;18.51;100.00
49216;BME280;45943;53.148;8.204;2023-09-19T03:41:58;100618.06;;;18.38;100.00
49216;BME280;45943;53.148;8.204;2023-09-19T03:44:24;100608.06;;;18.39;100.00
49216;BME280;45943;53.148;8.204;2023-09-19T03:46:50;100602.28;;;18.42;100.00
49216;BME280;45943;53.148;8.204;2023-09-19T03:49:16;100609.22;;;18.44;100.00
49216;BME280;45943;53.148;8.204;2023-09-19T03:51:42;100607.03;;;18.40;100.00
49216;BME280;45943;53.148;8.204;2023-09-19T03:54:08;100620.50;;;18.56;100.00
49216;BME280;45943;53.148;8.204;2023-09-19T03:56:34;100614.53;;;18.60;100.00
49216;BME280;45943;53.148;8.204;2023-09-19T03:59:00;100628.88;;;18.46;100.00
49216;BME280;45943;53.148;8.204;2023-09-19T04:01:26;100617.91;;;18.40;100.00
49216;BME280;45943;53.148;8.204;2023-09-19T04:03:53;100615.00;;;18.41;100.00
49216;BME280;45943;53.148;8.204;2023-09-19T04:06:19;100616.09;;;18.32;100.00
49216;BME280;45943;53.148;8.204;2023-09-19T04:08:45;100619.78;;;18.39;100.00
49216;BME280;45943;53.148;8.204;2023-09-19T04:11:13;100617.16;;;18.23;100.00
49216;BME280;45943;53.148;8.204;2023-09-19T04:13:39;100608.16;;;18.22;100.00
49216;BME280;45943;53.148;8.204;2023-09-19T04:16:05;100620.97;;;18.37;100.00
49216;BME280;45943;53.148;8.204;2023-09-19T04:18:32;100611.16;;;18.27;100.00
49216;BME280;45943;53.148;8.204;2023-09-19T04:21:02;100611.50;;;18.32;100.00
49216;BME280;45943;53.148;8.204;2023-09-19T04:23:30;100601.78;;;18.38;100.00
49216;BME280;45943;53.148;8.204;2023-09-19T04:25:56;100595.88;;;18.34;100.00
49216;BME280;45943;53.148;8.204;2023-09-19T04:28:23;100595.03;;;18.34;100.00
49216;BME280;45943;53.148;8.204;2023-09-19T04:30:50;100610.47;;;18.33;100.00
49216;BME280;45943;53.148;8.204;2023-09-19T04:33:16;100615.00;;;18.41;100.00
49216;BME280;45943;53.148;8.204;2023-09-19T04:35:42;100629.81;;;18.39;100.00
49216;BME280;45943;53.148;8.204;2023-09-19T04:38:10;100620.06;;;18.21;100.00
49216;BME280;45943;53.148;8.204;2023-09-19T04:40:37;100616.56;;;18.35;100.00
49216;BME280;45943;53.148;8.204;2023-09-19T04:43:05;100616.03;;;18.40;100.00
49216;BME280;45943;53.148;8.204;2023-09-19T04:45:31;100628.81;;;18.31;100.00
49216;BME280;45943;53.148;8.204;2023-09-19T04:47:57;100635.13;;;18.24;100.00
49216;BME280;45943;53.148;8.204;2023-09-19T04:50:23;100637.22;;;18.14;100.00
49216;BME280;45943;53.148;8.204;2023-09-19T04:52:53;100647.06;;;18.15;100.00
49216;BME280;45943;53.148;8.204;2023-09-19T04:55:19;100649.59;;;18.16;100.00
49216;BME280;45943;53.148;8.204;2023-09-19T04:57:46;100646.56;;;18.11;100.00
49216;BME280;45943;53.148;8.204;2023-09-19T05:00:14;100648.09;;;18.14;100.00
49216;BME280;45943;53.148;8.204;2023-09-19T05:02:42;100666.09;;;18.06;100.00
49216;BME280;45943;53.148;8.204;2023-09-19T05:05:09;100675.16;;;17.91;100.00
49216;BME280;45943;53.148;8.204;2023-09-19T05:07:37;100664.75;;;18.02;100.00
49216;BME280;45943;53.148;8.204;2023-09-19T05:10:04;100663.03;;;18.10;100.00
49216;BME280;45943;53.148;8.204;2023-09-19T05:12:35;100671.34;;;18.08;100.00
49216;BME280;45943;53.148;8.204;2023-09-19T05:15:04;100653.91;;;18.02;100.00
49216;BME280;45943;53.148;8.204;2023-09-19T05:17:35;100644.47;;;17.90;100.00
49216;BME280;45943;53.148;8.204;2023-09-19T05:20:01;100648.84;;;17.99;100.00
49216;BME280;45943;53.148;8.204;2023-09-19T05:22:43;100667.13;;;18.05;100.00
49216;BME280;45943;53.148;8.204;2023-09-19T05:25:12;100667.31;;;18.04;100.00
49216;BME280;45943;53.148;8.204;2023-09-19T05:27:43;100659.34;;;18.02;100.00
49216;BME280;45943;53.148;8.204;2023-09-19T05:30:09;100656.09;;;17.99;100.00
49216;BME280;45943;53.148;8.204;2023-09-19T05:32:36;100642.09;;;17.87;100.00
49216;BME280;45943;53.148;8.204;2023-09-19T05:35:02;100637.25;;;18.05;100.00
49216;BME280;45943;53.148;8.204;2023-09-19T05:37:28;100655.97;;;18.00;100.00
49216;BME280;45943;53.148;8.204;2023-09-19T05:39:55;100671.66;;;18.13;100.00
49216;BME280;45943;53.148;8.204;2023-09-19T05:42:21;100672.81;;;18.19;100.00
49216;BME280;45943;53.148;8.204;2023-09-19T05:44:47;100683.16;;;18.23;100.00
49216;BME280;45943;53.148;8.204;2023-09-19T05:47:13;100674.13;;;18.31;100.00
49216;BME280;45943;53.148;8.204;2023-09-19T05:49:39;100678.56;;;18.24;100.00
49216;BME280;45943;53.148;8.204;2023-09-19T05:52:05;100673.69;;;18.19;100.00
49216;BME280;45943;53.148;8.204;2023-09-19T05:54:33;100681.72;;;18.35;100.00
49216;BME280;45943;53.148;8.204;2023-09-19T05:57:00;100687.34;;;18.34;100.00
49216;BME280;45943;53.148;8.204;2023-09-19T05:59:27;100691.09;;;18.33;100.00
49216;BME280;45943;53.148;8.204;2023-09-19T06:01:54;100689.38;;;18.40;100.00
49216;BME280;45943;53.148;8.204;2023-09-19T06:04:20;100681.28;;;18.24;100.00
49216;BME280;45943;53.148;8.204;2023-09-19T06:06:47;100680.09;;;18.26;100.00
49216;BME280;45943;53.148;8.204;2023-09-19T06:09:14;100680.25;;;18.25;100.00
49216;BME280;45943;53.148;8.204;2023-09-19T06:11:41;100681.72;;;18.35;100.00
49216;BME280;45943;53.148;8.204;2023-09-19T06:14:07;100679.56;;;18.31;100.00
49216;BME280;45943;53.148;8.204;2023-09-19T06:16:36;100691.59;;;18.28;100.00
49216;BME280;45943;53.148;8.204;2023-09-19T06:19:03;100691.06;;;18.41;100.00
49216;BME280;45943;53.148;8.204;2023-09-19T06:21:32;100694.09;;;18.38;100.00
49216;BME280;45943;53.148;8.204;2023-09-19T06:23:58;100705.31;;;18.35;100.00
49216;BME280;45943;53.148;8.204;2023-09-19T06:26:24;100709.03;;;18.42;100.00
49216;BME280;45943;53.148;8.204;2023-09-19T06:28:52;100706.00;;;18.37;100.00
49216;BME280;45943;53.148;8.204;2023-09-19T06:31:18;100703.16;;;18.30;100.00
49216;BME280;45943;53.148;8.204;2023-09-19T06:33:46;100695.22;;;18.21;100.00
49216;BME280;45943;53.148;8.204;2023-09-19T06:36:12;100705.69;;;18.32;100.00
49216;BME280;45943;53.148;8.204;2023-09-19T06:38:38;100711.56;;;18.44;100.00
49216;BME280;45943;53.148;8.204;2023-09-19T06:41:05;100713.47;;;18.35;100.00
49216;BME280;45943;53.148;8.204;2023-09-19T06:43:32;100713.00;;;18.31;100.00
49216;BME280;45943;53.148;8.204;2023-09-19T06:46:02;100722.88;;;18.24;100.00
49216;BME280;45943;53.148;8.204;2023-09-19T06:48:29;100737.50;;;18.15;100.00
49216;BME280;45943;53.148;8.204;2023-09-19T06:50:55;100734.63;;;18.09;100.00
49216;BME280;45943;53.148;8.204;2023-09-19T06:53:24;100737.47;;;18.23;100.00
49216;BME280;45943;53.148;8.204;2023-09-19T06:55:50;100725.38;;;18.34;100.00
49216;BME280;45943;53.148;8.204;2023-09-19T06:58:16;100731.47;;;18.36;100.00
49216;BME280;45943;53.148;8.204;2023-09-19T07:00:42;100737.19;;;18.49;100.00
49216;BME280;45943;53.148;8.204;2023-09-19T07:03:10;100732.59;;;18.50;100.00
49216;BME280;45943;53.148;8.204;2023-09-19T07:05:39;100739.34;;;18.54;100.00
49216;BME280;45943;53.148;8.204;2023-09-19T07:08:06;100740.38;;;18.53;100.00
49216;BME280;45943;53.148;8.204;2023-09-19T07:10:33;100736.91;;;18.28;100.00
49216;BME280;45943;53.148;8.204;2023-09-19T07:13:04;100748.94;;;18.42;100.00
49216;BME280;45943;53.148;8.204;2023-09-19T07:15:37;100751.28;;;18.45;100.00
49216;BME280;45943;53.148;8.204;2023-09-19T07:18:07;100749.19;;;18.55;100.00
49216;BME280;45943;53.148;8.204;2023-09-19T07:20:36;100760.03;;;18.63;100.00
49216;BME280;45943;53.148;8.204;2023-09-19T07:23:03;100754.41;;;18.73;100.00
49216;BME280;45943;53.148;8.204;2023-09-19T07:25:30;100754.53;;;18.79;100.00
49216;BME280;45943;53.148;8.204;2023-09-19T07:27:56;100749.03;;;18.87;100.00
49216;BME280;45943;53.148;8.204;2023-09-19T07:30:25;100743.06;;;18.92;100.00
49216;BME280;45943;53.148;8.204;2023-09-19T07:32:52;100751.97;;;19.09;100.00
49216;BME280;45943;53.148;8.204;2023-09-19T07:35:18;100739.50;;;19.14;100.00
49216;BME280;45943;53.148;8.204;2023-09-19T07:37:50;100755.03;;;19.06;100.00
49216;BME280;45943;53.148;8.204;2023-09-19T07:40:17;100747.31;;;19.17;100.00
49216;BME280;45943;53.148;8.204;2023-09-19T07:42:44;100745.84;;;19.30;100.00
49216;BME280;45943;53.148;8.204;2023-09-19T07:45:12;100754.59;;;19.17;100.00
49216;BME280;45943;53.148;8.204;2023-09-19T07:47:46;100749.59;;;19.29;100.00
49216;BME280;45943;53.148;8.204;2023-09-19T07:50:13;100738.78;;;19.20;100.00
49216;BME280;45943;53.148;8.204;2023-09-19T07:52:40;100746.50;;;19.32;100.00
49216;BME280;45943;53.148;8.204;2023-09-19T07:55:06;100746.78;;;19.37;100.00
49216;BME280;45943;53.148;8.204;2023-09-19T07:57:37;100745.63;;;19.54;100.00
49216;BME280;45943;53.148;8.204;2023-09-19T08:00:03;100760.41;;;19.60;100.00
49216;BME280;45943;53.148;8.204;2023-09-19T08:02:34;100763.91;;;19.68;100.00
49216;BME280;45943;53.148;8.204;2023-09-19T08:05:00;100760.25;;;19.53;100.00
49216;BME280;45943;53.148;8.204;2023-09-19T08:07:28;100769.03;;;19.63;100.00
49216;BME280;45943;53.148;8.204;2023-09-19T08:09:54;100766.25;;;19.57;100.00
49216;BME280;45943;53.148;8.204;2023-09-19T08:12:20;100753.69;;;19.47;100.00
49216;BME280;45943;53.148;8.204;2023-09-19T08:14:49;100757.06;;;19.49;100.00
49216;BME280;45943;53.148;8.204;2023-09-19T08:17:16;100743.19;;;19.82;100.00
49216;BME280;45943;53.148;8.204;2023-09-19T08:19:42;100743.84;;;19.84;100.00
49216;BME280;45943;53.148;8.204;2023-09-19T08:22:10;100748.69;;;19.59;100.00
49216;BME280;45943;53.148;8.204;2023-09-19T08:24:36;100759.75;;;19.58;100.00
49216;BME280;45943;53.148;8.204;2023-09-19T08:27:03;100752.94;;;19.54;100.00
49216;BME280;45943;53.148;8.204;2023-09-19T08:29:30;100770.75;;;19.64;100.00
49216;BME280;45943;53.148;8.204;2023-09-19T08:31:57;100756.69;;;19.75;100.00
49216;BME280;45943;53.148;8.204;2023-09-19T08:34:23;100762.06;;;19.98;100.00
49216;BME280;45943;53.148;8.204;2023-09-19T08:36:51;100752.69;;;20.01;100.00
49216;BME280;45943;53.148;8.204;2023-09-19T08:39:18;100751.44;;;20.03;100.00
49216;BME280;45943;53.148;8.204;2023-09-19T08:41:45;100736.34;;;19.86;100.00
49216;BME280;45943;53.148;8.204;2023-09-19T08:44:10;100749.66;;;19.81;100.00
49216;BME280;45943;53.148;8.204;2023-09-19T08:46:37;100754.63;;;19.92;100.00
49216;BME280;45943;53.148;8.204;2023-09-19T08:49:08;100756.53;;;20.07;100.00
49216;BME280;45943;53.148;8.204;2023-09-19T08:51:52;100766.78;;;20.19;100.00
49216;BME280;45943;53.148;8.204;2023-09-19T08:54:28;100754.81;;;20.05;100.00
49216;BME280;45943;53.148;8.204;2023-09-19T08:57:00;100761.03;;;20.29;100.00
49216;BME280;45943;53.148;8.204;2023-09-19T08:59:39;100776.22;;;19.94;100.00
49216;BME280;45943;53.148;8.204;2023-09-19T09:02:11;100764.13;;;20.11;100.00
49216;BME280;45943;53.148;8.204;2023-09-19T09:04:39;100763.00;;;20.20;100.00
49216;BME280;45943;53.148;8.204;2023-09-19T09:07:13;100771.94;;;20.29;100.00
49216;BME280;45943;53.148;8.204;2023-09-19T09:09:39;100769.06;;;20.45;100.00
49216;BME280;45943;53.148;8.204;2023-09-19T09:12:12;100771.28;;;20.56;100.00
49216;BME280;45943;53.148;8.204;2023-09-19T09:14:43;100770.06;;;20.44;100.00
49216;BME280;45943;53.148;8.204;2023-09-19T09:17:11;100762.09;;;20.43;100.00
49216;BME280;45943;53.148;8.204;2023-09-19T09:19:37;100781.69;;;20.23;100.00
49216;BME280;45943;53.148;8.204;2023-09-19T09:22:07;100775.88;;;20.26;100.00
49216;BME280;45943;53.148;8.204;2023-09-19T09:24:34;100781.69;;;20.23;100.00
49216;BME280;45943;53.148;8.204;2023-09-19T09:27:06;100778.97;;;20.38;100.00
49216;BME280;45943;53.148;8.204;2023-09-19T09:29:45;100781.88;;;20.22;100.00
49216;BME280;45943;53.148;8.204;2023-09-19T09:32:17;100787.69;;;20.04;100.00
49216;BME280;45943;53.148;8.204;2023-09-19T09:34:52;100781.03;;;20.21;100.00
49216;BME280;45943;53.148;8.204;2023-09-19T09:37:20;100777.78;;;20.26;100.00
49216;BME280;45943;53.148;8.204;2023-09-19T09:42:33;100782.53;;;20.24;100.00
49216;BME280;45943;53.148;8.204;2023-09-19T09:47:58;100782.75;;;20.37;100.00
49216;BME280;45943;53.148;8.204;2023-09-19T09:50:46;100774.38;;;20.24;100.00
49216;BME280;45943;53.148;8.204;2023-09-19T09:53:25;100775.88;;;20.26;100.00
49216;BME280;45943;53.148;8.204;2023-09-19T09:56:00;100793.44;;;20.24;100.00
49216;BME280;45943;53.148;8.204;2023-09-19T09:58:26;100785.16;;;20.02;100.00
49216;BME280;45943;53.148;8.204;2023-09-19T10:00:55;100785.72;;;19.98;100.00
49216;BME280;45943;53.148;8.204;2023-09-19T10:03:31;100786.03;;;20.18;100.00
49216;BME280;45943;53.148;8.204;2023-09-19T10:06:00;100798.59;;;20.33;100.00
49216;BME280;45943;53.148;8.204;2023-09-19T10:08:34;100788.53;;;20.34;100.00
49216;BME280;45943;53.148;8.204;2023-09-19T10:11:14;100780.50;;;20.55;100.00
49216;BME280;45943;53.148;8.204;2023-09-19T10:13:41;100779.47;;;20.92;100.00
49216;BME280;45943;53.148;8.204;2023-09-19T10:16:09;100776.59;;;20.79;100.00
49216;BME280;45943;53.148;8.204;2023-09-19T10:18:36;100786.25;;;20.97;100.00
49216;BME280;45943;53.148;8.204;2023-09-19T10:21:04;100785.28;;;21.04;100.00
49216;BME280;45943;53.148;8.204;2023-09-19T10:23:32;100787.91;;;20.98;100.00
49216;BME280;45943;53.148;8.204;2023-09-19T10:25:59;100783.13;;;21.21;100.00
49216;BME280;45943;53.148;8.204;2023-09-19T10:28:27;100775.34;;;21.18;100.00
49216;BME280;45943;53.148;8.204;2023-09-19T10:30:54;100802.81;;;21.16;97.59
49216;BME280;45943;53.148;8.204;2023-09-19T10:33:22;100786.38;;;21.10;93.32
49216;BME280;45943;53.148;8.204;2023-09-19T10:35:51;100783.97;;;21.22;94.89
49216;BME280;45943;53.148;8.204;2023-09-19T10:38:23;100789.28;;;21.08;91.27
49216;BME280;45943;53.148;8.204;2023-09-19T10:40:51;100785.69;;;20.86;93.87
49216;BME280;45943;53.148;8.204;2023-09-19T10:43:19;100782.34;;;21.06;97.70
49216;BME280;45943;53.148;8.204;2023-09-19T10:45:47;100772.09;;;21.08;93.20
49216;BME280;45943;53.148;8.204;2023-09-19T10:48:15;100793.63;;;21.39;91.15
49216;BME280;45943;53.148;8.204;2023-09-19T10:50:53;100783.53;;;21.61;91.70
49216;BME280;45943;53.148;8.204;2023-09-19T10:53:31;100784.44;;;21.96;87.68
49216;BME280;45943;53.148;8.204;2023-09-19T10:56:18;100790.97;;;21.95;88.93
49216;BME280;45943;53.148;8.204;2023-09-19T10:58:49;100772.69;;;22.23;83.96
49216;BME280;45943;53.148;8.204;2023-09-19T11:01:15;100766.28;;;22.51;82.61
49216;BME280;45943;53.148;8.204;2023-09-19T11:03:42;100767.34;;;22.50;77.23
49216;BME280;45943;53.148;8.204;2023-09-19T11:06:10;100767.78;;;22.53;76.11
49216;BME280;45943;53.148;8.204;2023-09-19T11:09:01;100769.22;;;22.49;76.73
49216;BME280;45943;53.148;8.204;2023-09-19T11:11:41;100768.00;;;22.52;76.95
49216;BME280;45943;53.148;8.204;2023-09-19T11:14:15;100765.44;;;22.98;77.22
49216;BME280;45943;53.148;8.204;2023-09-19T11:30:41;100760.41;;;23.08;71.11
49216;BME280;45943;53.148;8.204;2023-09-19T11:33:27;100766.78;;;23.42;68.01
49216;BME280;45943;53.148;8.204;2023-09-19T11:43:51;100757.03;;;23.06;70.17
49216;BME280;45943;53.148;8.204;2023-09-19T11:46:21;100757.31;;;22.70;70.22
49216;BME280;45943;53.148;8.204;2023-09-19T11:48:48;100748.72;;;22.80;76.13
49216;BME280;45943;53.148;8.204;2023-09-19T11:51:16;100756.84;;;23.14;73.97
49216;BME280;45943;53.148;8.204;2023-09-19T11:53:47;100743.19;;;23.54;72.21
49216;BME280;45943;53.148;8.204;2023-09-19T11:56:18;100749.94;;;23.52;66.72
49216;BME280;45943;53.148;8.204;2023-09-19T11:58:50;100742.53;;;23.19;65.43
49216;BME280;45943;53.148;8.204;2023-09-19T12:01:25;100777.88;;;23.07;65.32
49216;BME280;45943;53.148;8.204;2023-09-19T12:03:55;100741.31;;;23.41;64.73
49216;BME280;45943;53.148;8.204;2023-09-19T12:06:24;100745.97;;;23.67;64.22
49216;BME280;45943;53.148;8.204;2023-09-19T12:08:55;100744.28;;;23.73;64.51
49216;BME280;45943;53.148;8.204;2023-09-19T12:11:23;100758.00;;;23.60;62.53
49216;BME280;45943;53.148;8.204;2023-09-19T12:13:50;100733.50;;;23.45;63.22
49216;BME280;45943;53.148;8.204;2023-09-19T12:16:22;100729.94;;;23.44;62.77
49216;BME280;45943;53.148;8.204;2023-09-19T12:18:51;100714.53;;;23.30;63.97
49216;BME280;45943;53.148;8.204;2023-09-19T12:21:23;100730.72;;;22.92;66.84
49216;BME280;45943;53.148;8.204;2023-09-19T12:26:45;100715.81;;;23.14;66.01
49216;BME280;45943;53.148;8.204;2023-09-19T12:29:19;100719.56;;;23.00;67.35
49216;BME280;45943;53.148;8.204;2023-09-19T12:31:53;100707.22;;;22.56;67.09
49216;BME280;45943;53.148;8.204;2023-09-19T12:34:26;100715.78;;;22.95;67.21
49216;BME280;45943;53.148;8.204;2023-09-19T12:37:03;100713.72;;;23.36;67.55
49216;BME280;45943;53.148;8.204;2023-09-19T12:39:31;100708.47;;;23.74;65.37
49216;BME280;45943;53.148;8.204;2023-09-19T12:41:57;100708.41;;;24.01;62.65
49216;BME280;45943;53.148;8.204;2023-09-19T12:44:24;100717.53;;;24.53;63.24
49216;BME280;45943;53.148;8.204;2023-09-19T12:46:50;100692.88;;;24.46;60.79
49216;BME280;45943;53.148;8.204;2023-09-19T12:49:17;100691.03;;;24.34;62.12
49216;BME280;45943;53.148;8.204;2023-09-19T12:51:47;100683.38;;;23.91;62.60
49216;BME280;45943;53.148;8.204;2023-09-19T12:54:14;100675.59;;;23.35;64.26
49216;BME280;45943;53.148;8.204;2023-09-19T12:56:42;100669.28;;;23.08;66.94
49216;BME280;45943;53.148;8.204;2023-09-19T12:59:14;100675.38;;;23.30;68.61
49216;BME280;45943;53.148;8.204;2023-09-19T13:01:41;100672.78;;;22.75;70.51
49216;BME280;45943;53.148;8.204;2023-09-19T13:06:45;100676.84;;;23.19;71.77
49216;BME280;45943;53.148;8.204;2023-09-19T13:09:14;100663.81;;;23.34;72.19
49216;BME280;45943;53.148;8.204;2023-09-19T13:11:42;100661.94;;;23.22;70.38
49216;BME280;45943;53.148;8.204;2023-09-19T13:16:55;100668.00;;;23.30;70.26
49216;BME280;45943;53.148;8.204;2023-09-19T13:19:42;100679.16;;;23.09;71.08
49216;BME280;45943;53.148;8.204;2023-09-19T13:25:04;100670.47;;;22.79;71.34
49216;BME280;45943;53.148;8.204;2023-09-19T13:27:32;100675.91;;;22.66;72.20
49216;BME280;45943;53.148;8.204;2023-09-19T13:29:58;100717.09;;;22.51;73.84
49216;BME280;45943;53.148;8.204;2023-09-19T13:32:25;100663.66;;;22.48;71.35
49216;BME280;45943;53.148;8.204;2023-09-19T13:34:51;100659.47;;;22.46;72.20
49216;BME280;45943;53.148;8.204;2023-09-19T13:37:17;100663.28;;;22.58;71.53
49216;BME280;45943;53.148;8.204;2023-09-19T13:39:44;100673.59;;;22.63;70.79
49216;BME280;45943;53.148;8.204;2023-09-19T13:42:13;100660.16;;;22.74;71.38